TAF KLCK
AMD KLCK 090939Z 0910/1006 00000KT P6SM BKN250 TEMPO 0910/0912 5SM BR FM091400 15010G18KT P6SM BKN250 FM092300 16008KT P6SM BKN100 FM100200 20008KT P6SM BKN050=
METAR KLCK
WC KLCK
WS KLCK
WV KLCK